Time;durP1;ratioP1;P1;durP2;ratioP2;P2;SDS_P1;SDS_P2;PMS_P1;PMS_P2;Temp;Humidity;BMP_temperature;BMP_pressure;BME280_temperature;BME280_humidity;BME280_pressure;Samples;Min_cycle;Max_cycle;Signal;HPM_P1;HPM_P2
2023/05/24 00:00:11;;;;;;;13.10;10.10;;;;;;;16.80;61.47;99756.48;131084;1257;107570;-73
2023/05/24 00:03:38;;;;;;;12.10;10.40;;;;;;;16.77;61.66;99757.60;131032;1251;107657;-73
2023/05/24 00:06:43;;;;;;;13.20;10.80;;;;;;;16.73;61.65;99752.25;131020;1255;107549;-73
2023/05/24 00:09:49;;;;;;;13.20;10.50;;;;;;;16.69;61.65;99753.65;130945;1251;107959;-75
2023/05/24 00:12:54;;;;;;;13.20;10.60;;;;;;;16.63;62.00;99756.51;130965;1251;107348;-73
2023/05/24 00:16:00;;;;;;;14.70;10.70;;;;;;;16.61;62.16;99756.29;131082;1257;107354;-73
2023/05/24 00:19:05;;;;;;;12.60;10.10;;;;;;;16.58;62.13;99753.64;130982;1257;107601;-73
2023/05/24 00:22:12;;;;;;;12.10;9.60;;;;;;;16.59;62.39;99752.64;130969;1257;107510;-73
2023/05/24 00:25:18;;;;;;;12.40;10.40;;;;;;;16.60;62.50;99749.37;131041;1251;107310;-74
2023/05/24 00:28:24;;;;;;;14.60;10.30;;;;;;;16.63;62.52;99749.50;131005;1256;107260;-73
2023/05/24 00:31:31;;;;;;;11.90;10.10;;;;;;;16.63;62.58;99747.41;131081;1256;107407;-73
2023/05/24 00:34:36;;;;;;;12.10;10.10;;;;;;;16.64;62.62;99742.63;131071;1257;107551;-74
2023/05/24 00:37:44;;;;;;;14.30;10.00;;;;;;;16.65;62.62;99731.19;131077;1261;107283;-74
2023/05/24 00:40:49;;;;;;;12.20;9.90;;;;;;;16.63;62.83;99730.73;131121;1257;107528;-74
2023/05/24 00:43:55;;;;;;;13.70;10.20;;;;;;;16.60;62.91;99729.31;131076;1256;107510;-74
2023/05/24 00:47:01;;;;;;;12.00;10.00;;;;;;;16.58;63.08;99737.14;131162;1256;108145;-73
2023/05/24 00:50:10;;;;;;;12.70;10.00;;;;;;;16.53;63.10;99737.21;131034;1251;107247;-75
2023/05/24 00:53:16;;;;;;;12.00;9.90;;;;;;;16.46;63.38;99737.91;130902;1256;107603;-73
2023/05/24 00:56:22;;;;;;;12.40;10.00;;;;;;;16.43;63.47;99738.19;130847;1258;107531;-75
2023/05/24 00:59:28;;;;;;;11.70;9.90;;;;;;;16.36;63.53;99732.14;131002;1256;107522;-74
2023/05/24 01:02:34;;;;;;;10.80;8.80;;;;;;;16.31;63.68;99734.97;130984;1257;107440;-74
2023/05/24 01:05:39;;;;;;;14.10;10.40;;;;;;;16.28;63.74;99738.15;130763;1251;107528;-74
2023/05/24 01:08:54;;;;;;;12.10;9.90;;;;;;;16.27;63.81;99739.23;130991;1251;107520;-73
2023/05/24 01:12:14;;;;;;;11.90;10.10;;;;;;;16.28;63.90;99739.14;130929;1256;107238;-73
2023/05/24 01:15:25;;;;;;;13.10;10.40;;;;;;;16.29;63.90;99742.00;131020;1257;107353;-72
2023/05/24 01:18:33;;;;;;;12.40;10.10;;;;;;;16.32;63.93;99744.71;130903;1251;107563;-72
2023/05/24 01:21:55;;;;;;;12.20;9.70;;;;;;;16.29;63.90;99743.42;130969;1251;107494;-73
2023/05/24 01:25:09;;;;;;;12.00;10.20;;;;;;;16.21;64.06;99741.09;131035;1264;107256;-74
2023/05/24 01:28:18;;;;;;;13.30;10.10;;;;;;;16.13;64.43;99746.73;131011;1256;107364;-74
2023/05/24 01:31:24;;;;;;;11.90;9.70;;;;;;;16.08;64.31;99749.23;130915;1257;107454;-74
2023/05/24 01:34:29;;;;;;;11.80;9.80;;;;;;;16.04;64.40;99747.95;130956;1251;107388;-74
2023/05/24 01:37:35;;;;;;;12.40;9.80;;;;;;;15.99;64.40;99750.07;131145;1256;107529;-74
2023/05/24 01:40:42;;;;;;;14.90;9.80;;;;;;;15.97;64.62;99744.76;131079;1251;107614;-73
2023/05/24 01:43:53;;;;;;;13.80;10.40;;;;;;;15.93;64.75;99743.34;130683;1257;107399;-73
2023/05/24 01:47:07;;;;;;;12.70;9.90;;;;;;;15.89;64.76;99742.04;130972;1256;107386;-73
2023/05/24 01:50:21;;;;;;;12.70;9.50;;;;;;;15.90;65.09;99741.38;130917;1257;106539;-73
2023/05/24 01:53:31;;;;;;;12.60;10.00;;;;;;;15.90;65.12;99745.14;130944;1256;105857;-74
2023/05/24 01:56:39;;;;;;;18.60;11.70;;;;;;;15.95;65.14;99742.80;130692;1257;106708;-74
2023/05/24 01:59:45;;;;;;;15.80;11.80;;;;;;;15.97;65.08;99742.61;130754;1257;107385;-74
2023/05/24 02:02:53;;;;;;;13.40;10.50;;;;;;;15.97;65.24;99734.58;131009;1256;107363;-74
2023/05/24 02:05:58;;;;;;;13.60;10.90;;;;;;;16.01;65.33;99734.59;131067;1256;105615;-75
2023/05/24 02:09:04;;;;;;;14.90;10.80;;;;;;;16.02;65.35;99730.51;132465;1255;106921;-74
2023/05/24 02:12:12;;;;;;;13.00;10.30;;;;;;;16.01;65.36;99730.29;131170;1251;106296;-75
2023/05/24 02:15:19;;;;;;;13.00;10.80;;;;;;;15.96;65.60;99731.26;131127;1256;107396;-75
2023/05/24 02:18:25;;;;;;;12.10;9.80;;;;;;;15.91;65.70;99730.84;130727;1256;107509;-72
2023/05/24 02:21:31;;;;;;;12.90;10.30;;;;;;;15.89;65.79;99731.45;130952;1256;107599;-72
2023/05/24 02:24:39;;;;;;;13.80;11.00;;;;;;;15.88;65.81;99731.90;130927;1263;106761;-72
2023/05/24 02:27:45;;;;;;;13.00;10.50;;;;;;;15.88;66.05;99731.35;130935;1251;106150;-72
2023/05/24 02:30:51;;;;;;;14.90;9.90;;;;;;;15.88;66.03;99732.43;130986;1257;107593;-72
2023/05/24 02:33:58;;;;;;;18.50;12.30;;;;;;;15.89;66.17;99730.20;130990;1251;107539;-72
2023/05/24 02:37:04;;;;;;;19.10;13.30;;;;;;;15.90;66.14;99732.10;131080;1256;107379;-76
2023/05/24 02:40:12;;;;;;;16.20;12.20;;;;;;;15.91;66.32;99734.80;130921;1251;108316;-74
2023/05/24 02:43:17;;;;;;;14.90;11.30;;;;;;;15.92;66.27;99732.73;131141;1256;107443;-73
2023/05/24 02:46:23;;;;;;;16.20;11.80;;;;;;;15.90;66.31;99731.00;130959;1256;106547;-73
2023/05/24 02:49:28;;;;;;;17.60;12.40;;;;;;;15.88;66.47;99732.89;131127;1264;105671;-74
2023/05/24 02:52:35;;;;;;;17.30;12.30;;;;;;;15.84;66.59;99732.38;131066;1255;106132;-71
2023/05/24 02:55:42;;;;;;;15.00;11.20;;;;;;;15.81;66.72;99739.35;130956;1256;107380;-69
2023/05/24 02:58:49;;;;;;;14.80;11.30;;;;;;;15.81;66.72;99741.34;130972;1256;108016;-70
2023/05/24 03:01:54;;;;;;;14.20;11.10;;;;;;;15.81;66.74;99737.58;130981;1256;108131;-71
2023/05/24 03:05:04;;;;;;;12.40;10.40;;;;;;;15.81;66.74;99740.35;130956;1256;138270;-70
2023/05/24 03:08:10;;;;;;;14.40;10.00;;;;;;;15.80;66.89;99746.30;130974;1251;107539;-72
2023/05/24 03:11:15;;;;;;;12.90;10.60;;;;;;;15.82;66.89;99749.86;130956;1256;107501;-72
2023/05/24 03:14:23;;;;;;;13.40;10.80;;;;;;;15.85;67.07;99755.34;130808;1257;107531;-71
2023/05/24 03:17:30;;;;;;;15.00;10.90;;;;;;;15.93;66.99;99761.47;131072;1253;107357;-71
2023/05/24 03:20:35;;;;;;;14.70;11.50;;;;;;;15.99;66.86;99762.98;130832;1253;107382;-72
2023/05/24 03:23:41;;;;;;;12.90;11.30;;;;;;;16.01;66.95;99765.02;131089;1256;106674;-72
2023/05/24 03:26:47;;;;;;;14.50;11.10;;;;;;;16.03;67.07;99767.18;130709;1257;107690;-72
2023/05/24 03:29:52;;;;;;;12.30;11.10;;;;;;;16.02;67.07;99766.02;130962;1256;107550;-70
2023/05/24 03:32:59;;;;;;;13.20;10.80;;;;;;;16.03;67.23;99772.32;130721;1257;107444;-71
2023/05/24 03:36:06;;;;;;;14.30;11.40;;;;;;;16.08;67.25;99771.47;130776;1257;107441;-71
2023/05/24 03:39:12;;;;;;;14.60;11.50;;;;;;;16.13;67.26;99777.78;130719;1253;107526;-70
2023/05/24 03:42:30;;;;;;;12.70;10.70;;;;;;;16.15;67.24;99779.98;130729;1257;107395;-71
2023/05/24 03:45:36;;;;;;;11.80;10.00;;;;;;;16.19;67.29;99786.30;130783;1256;107419;-71
2023/05/24 03:48:42;;;;;;;27.30;17.10;;;;;;;16.24;67.36;99792.08;131061;1251;107400;-70
2023/05/24 03:51:47;;;;;;;20.90;14.00;;;;;;;16.34;67.41;99793.23;131068;1256;107933;-70
2023/05/24 03:54:53;;;;;;;24.00;14.50;;;;;;;16.48;67.48;99793.92;130896;1252;107424;-70
2023/05/24 03:57:59;;;;;;;14.10;11.40;;;;;;;16.62;67.39;99799.44;131187;1253;107244;-70
2023/05/24 04:01:05;;;;;;;14.60;12.00;;;;;;;16.74;67.32;99794.86;131123;1251;107244;-74
2023/05/24 04:04:11;;;;;;;18.40;13.10;;;;;;;16.81;67.17;99796.02;131102;1254;107530;-72
2023/05/24 04:07:16;;;;;;;13.70;11.90;;;;;;;16.86;67.15;99798.55;130639;1251;107571;-71
2023/05/24 04:10:22;;;;;;;13.20;11.80;;;;;;;16.98;67.27;99800.98;130864;1256;107363;-71
2023/05/24 04:13:28;;;;;;;13.80;12.30;;;;;;;17.07;67.30;99802.22;130890;1256;107707;-70
2023/05/24 04:16:33;;;;;;;15.40;12.10;;;;;;;17.12;67.24;99804.75;130887;1254;107261;-70
2023/05/24 04:19:39;;;;;;;14.40;12.90;;;;;;;17.08;67.41;99806.98;130913;1253;107444;-71
2023/05/24 04:22:44;;;;;;;14.90;13.40;;;;;;;17.09;67.63;99812.59;130962;1256;107488;-70
2023/05/24 04:25:51;;;;;;;15.80;14.10;;;;;;;17.14;67.74;99821.46;130930;1256;107505;-71
2023/05/24 04:28:58;;;;;;;15.30;12.00;;;;;;;17.22;68.14;99823.21;130879;1256;107265;-70
2023/05/24 04:32:05;;;;;;;16.40;12.90;;;;;;;17.50;68.23;99825.57;130980;1254;107486;-70
2023/05/24 04:35:11;;;;;;;17.20;13.20;;;;;;;17.75;68.03;99829.59;131056;1251;107500;-71
2023/05/24 04:38:18;;;;;;;15.60;13.50;;;;;;;17.92;68.10;99831.30;130931;1256;107402;-79
2023/05/24 04:41:23;;;;;;;16.00;14.00;;;;;;;18.22;67.97;99827.46;131011;1251;107313;-75
2023/05/24 04:44:29;;;;;;;17.10;14.80;;;;;;;18.45;67.88;99832.69;130904;1256;107534;-75
2023/05/24 04:47:34;;;;;;;19.50;15.80;;;;;;;18.53;67.73;99834.39;131154;1251;107527;-75
2023/05/24 04:50:40;;;;;;;18.50;16.30;;;;;;;18.51;67.77;99836.40;131048;1256;107567;-75
2023/05/24 04:53:45;;;;;;;17.40;15.30;;;;;;;18.47;67.94;99837.04;131005;1257;105891;-75
2023/05/24 04:56:51;;;;;;;18.50;15.90;;;;;;;18.60;67.93;99834.62;131004;1256;107514;-75
2023/05/24 04:59:56;;;;;;;18.90;16.30;;;;;;;18.74;67.82;99838.95;131033;1258;107526;-77
2023/05/24 05:03:02;;;;;;;19.90;17.90;;;;;;;18.71;67.84;99843.98;131042;1255;107472;-75
2023/05/24 05:06:08;;;;;;;21.00;18.50;;;;;;;18.68;68.10;99853.48;130967;1256;107486;-75
2023/05/24 05:09:14;;;;;;;19.50;16.50;;;;;;;18.56;68.20;99853.20;131106;1256;107539;-75
2023/05/24 05:12:20;;;;;;;16.90;15.10;;;;;;;18.57;68.31;99852.87;131056;1256;107677;-74
2023/05/24 05:15:26;;;;;;;17.50;15.40;;;;;;;18.68;68.16;99851.57;130933;1257;107257;-74
2023/05/24 05:18:32;;;;;;;17.70;15.90;;;;;;;18.82;68.11;99852.80;131089;1251;107553;-75
2023/05/24 05:21:38;;;;;;;19.00;17.00;;;;;;;18.99;67.98;99854.88;131238;1251;107283;-74
2023/05/24 05:24:44;;;;;;;18.90;16.90;;;;;;;19.00;67.82;99860.29;130988;1254;107436;-75
2023/05/24 05:27:50;;;;;;;19.10;17.10;;;;;;;18.97;67.92;99864.38;131146;1255;107556;-75
2023/05/24 05:30:55;;;;;;;19.40;17.00;;;;;;;18.96;67.96;99868.13;131070;1253;105604;-75
2023/05/24 05:34:01;;;;;;;20.70;18.50;;;;;;;18.92;68.18;99868.65;130959;1254;107380;-74
2023/05/24 05:37:07;;;;;;;22.00;19.70;;;;;;;18.84;68.24;99873.34;130956;1257;107392;-75
2023/05/24 05:40:13;;;;;;;21.20;19.00;;;;;;;18.66;68.64;99875.91;131073;1251;107523;-75
2023/05/24 05:43:19;;;;;;;21.50;19.10;;;;;;;18.53;68.60;99878.63;130934;1254;107227;-75
2023/05/24 05:46:24;;;;;;;18.20;16.30;;;;;;;18.56;68.68;99875.33;131077;1256;106209;-75
2023/05/24 05:49:30;;;;;;;22.80;16.80;;;;;;;18.64;68.84;99883.30;131060;1251;107526;-75
2023/05/24 05:52:36;;;;;;;21.20;18.80;;;;;;;18.69;68.90;99887.20;131018;1256;106528;-75
2023/05/24 05:55:41;;;;;;;19.70;16.90;;;;;;;18.74;69.07;99892.37;131000;1256;107473;-75
2023/05/24 05:58:46;;;;;;;20.30;18.20;;;;;;;18.88;68.87;99898.23;130950;1254;107521;-75
2023/05/24 06:01:54;;;;;;;19.80;17.80;;;;;;;18.96;68.67;99903.98;130872;1255;107398;-77
2023/05/24 06:05:03;;;;;;;23.10;19.70;;;;;;;19.07;68.78;99910.89;130825;1257;108082;-78
2023/05/24 06:08:09;;;;;;;21.50;19.20;;;;;;;19.07;68.63;99911.40;130754;1254;109610;-75
2023/05/24 06:11:15;;;;;;;21.20;18.70;;;;;;;19.03;68.57;99908.02;130993;1253;107507;-77
2023/05/24 06:14:21;;;;;;;20.90;18.70;;;;;;;19.01;69.07;99913.84;130974;1256;107521;-77
2023/05/24 06:17:27;;;;;;;20.40;17.50;;;;;;;19.00;69.09;99915.10;130974;1254;107475;-77
2023/05/24 06:20:33;;;;;;;20.60;17.90;;;;;;;18.98;68.96;99924.23;131013;1256;108122;-77
2023/05/24 06:23:39;;;;;;;22.30;18.00;;;;;;;18.94;68.82;99932.19;130985;1256;107624;-76
2023/05/24 06:26:44;;;;;;;21.40;18.90;;;;;;;18.84;68.64;99933.06;131068;1256;107510;-76
2023/05/24 06:29:50;;;;;;;22.30;18.70;;;;;;;18.65;69.12;99938.27;130883;1258;107619;-76
2023/05/24 06:32:56;;;;;;;20.40;18.20;;;;;;;18.61;69.28;99942.91;130919;1251;107260;-77
2023/05/24 06:36:01;;;;;;;24.00;20.70;;;;;;;18.56;70.09;99948.77;130937;1251;107311;-76
2023/05/24 06:39:07;;;;;;;20.70;18.50;;;;;;;18.45;70.07;99947.23;130961;1256;107249;-76
2023/05/24 06:42:12;;;;;;;20.90;18.70;;;;;;;18.38;70.61;99949.20;130898;1256;107501;-76
2023/05/24 06:45:23;;;;;;;23.50;18.60;;;;;;;18.32;70.97;99950.27;131027;1256;107455;-76
2023/05/24 06:48:28;;;;;;;20.50;18.40;;;;;;;18.43;71.16;99945.66;130839;1251;107525;-76
2023/05/24 06:51:34;;;;;;;21.70;19.40;;;;;;;18.58;70.67;99944.62;130952;1256;105719;-77
2023/05/24 06:54:39;;;;;;;22.70;18.80;;;;;;;18.67;70.74;99946.20;131006;1263;107378;-76
2023/05/24 06:57:45;;;;;;;21.30;19.20;;;;;;;18.85;70.57;99947.91;130968;1253;108811;-76
2023/05/24 07:00:51;;;;;;;21.00;18.40;;;;;;;18.86;70.27;99949.58;130986;1254;107560;-76
2023/05/24 07:03:56;;;;;;;19.90;17.60;;;;;;;18.80;70.26;99954.15;130971;1255;107583;-76
2023/05/24 07:07:02;;;;;;;25.80;21.20;;;;;;;18.80;70.43;99949.79;131128;1256;107438;-76
2023/05/24 07:10:11;;;;;;;19.20;17.10;;;;;;;18.94;70.33;99958.39;131090;1256;107440;-77
2023/05/24 07:13:16;;;;;;;20.80;17.70;;;;;;;19.05;69.87;99959.88;131192;1256;107546;-76
2023/05/24 07:16:22;;;;;;;20.90;17.90;;;;;;;19.24;69.37;99957.57;131086;1255;107670;-76
2023/05/24 07:19:28;;;;;;;19.90;17.90;;;;;;;19.41;68.79;99963.36;131212;1254;107541;-76
2023/05/24 07:22:33;;;;;;;22.00;17.40;;;;;;;19.56;68.34;99969.17;131250;1251;105967;-75
2023/05/24 07:25:39;;;;;;;19.60;17.50;;;;;;;19.66;67.44;99979.23;131153;1251;108020;-75
2023/05/24 07:28:44;;;;;;;19.70;17.50;;;;;;;19.72;67.61;99985.11;130977;1251;107449;-75
2023/05/24 07:31:50;;;;;;;18.90;16.90;;;;;;;19.94;67.91;99984.78;131070;1251;107351;-75
2023/05/24 07:34:56;;;;;;;21.20;15.90;;;;;;;20.19;67.13;99994.20;130988;1254;107533;-75
2023/05/24 07:38:01;;;;;;;17.90;15.40;;;;;;;20.41;66.71;99994.52;130998;1256;107256;-75
2023/05/24 07:41:08;;;;;;;15.90;14.30;;;;;;;20.65;66.71;99993.61;130929;1256;107399;-75
2023/05/24 07:44:14;;;;;;;18.60;16.70;;;;;;;20.72;64.80;99999.68;130931;1255;107527;-75
2023/05/24 07:47:20;;;;;;;18.00;15.80;;;;;;;20.56;64.43;100003.59;131017;1263;107286;-74
2023/05/24 07:50:25;;;;;;;17.20;15.40;;;;;;;20.47;64.70;100006.22;130929;1251;107496;-75
2023/05/24 07:53:32;;;;;;;19.20;17.10;;;;;;;20.42;64.11;100010.90;131029;1251;107400;-75
2023/05/24 07:56:38;;;;;;;16.60;15.00;;;;;;;20.34;65.00;100016.02;130993;1255;107508;-75
2023/05/24 07:59:44;;;;;;;17.90;15.50;;;;;;;20.45;65.69;100020.59;131109;1256;107514;-75
2023/05/24 08:02:49;;;;;;;16.10;14.50;;;;;;;20.56;65.21;100024.02;131143;1255;107521;-75
2023/05/24 08:05:55;;;;;;;16.90;15.10;;;;;;;20.61;64.01;100026.91;130948;1251;106597;-75
2023/05/24 08:09:00;;;;;;;17.20;15.50;;;;;;;20.52;63.42;100039.39;131086;1255;107426;-76
2023/05/24 08:12:07;;;;;;;16.80;14.70;;;;;;;20.44;63.69;100041.98;131080;1255;107608;-75
2023/05/24 08:15:13;;;;;;;16.80;14.60;;;;;;;20.45;63.86;100046.27;130954;1256;107568;-76
2023/05/24 08:18:18;;;;;;;16.80;15.00;;;;;;;20.40;64.29;100046.15;130967;1252;107375;-75
2023/05/24 08:21:24;;;;;;;19.00;15.60;;;;;;;20.48;64.52;100043.77;130989;1255;107430;-75
2023/05/24 08:24:29;;;;;;;20.20;15.60;;;;;;;20.67;64.86;100047.58;131013;1254;107537;-75
2023/05/24 08:27:35;;;;;;;19.50;16.70;;;;;;;20.83;64.51;100050.45;131013;1256;107415;-75
2023/05/24 08:30:42;;;;;;;20.70;16.80;;;;;;;21.00;64.39;100049.64;131143;1251;107209;-76
2023/05/24 08:33:49;;;;;;;20.30;16.90;;;;;;;21.14;63.65;100051.88;130972;1256;107566;-76
2023/05/24 08:36:54;;;;;;;20.30;16.20;;;;;;;21.28;63.91;100050.59;131064;1256;107533;-76
2023/05/24 08:40:00;;;;;;;21.30;16.80;;;;;;;21.39;62.86;100053.66;130968;1251;107603;-76
2023/05/24 08:43:10;;;;;;;19.90;16.70;;;;;;;21.42;63.41;100053.38;131001;1255;107511;-77
2023/05/24 08:46:17;;;;;;;20.50;17.40;;;;;;;21.50;63.15;100065.14;131057;1251;107527;-76
2023/05/24 08:49:22;;;;;;;19.70;17.60;;;;;;;21.48;63.52;100068.17;130984;1256;107252;-76
2023/05/24 08:52:29;;;;;;;20.40;18.10;;;;;;;21.44;63.43;100067.52;131227;1261;107625;-77
2023/05/24 08:55:36;;;;;;;21.30;19.10;;;;;;;21.43;62.97;100072.54;131137;1252;107562;-76
2023/05/24 08:58:41;;;;;;;21.60;19.30;;;;;;;21.22;62.89;100072.62;131193;1254;107191;-77
2023/05/24 09:01:53;;;;;;;20.50;18.40;;;;;;;21.13;63.28;100083.13;131076;1256;107531;-77
2023/05/24 09:05:00;;;;;;;18.80;17.00;;;;;;;21.20;63.78;100086.23;131002;1256;106702;-77
2023/05/24 09:08:06;;;;;;;19.20;17.20;;;;;;;21.43;63.07;100099.42;131105;1256;107529;-76
2023/05/24 09:11:12;;;;;;;20.00;18.00;;;;;;;21.30;62.75;100098.04;131028;1256;106679;-76
2023/05/24 09:14:18;;;;;;;21.20;18.50;;;;;;;21.35;62.58;100102.10;131062;1253;107616;-77
2023/05/24 09:17:24;;;;;;;20.20;17.80;;;;;;;21.38;62.72;100100.93;131174;1257;107543;-76
2023/05/24 09:20:30;;;;;;;18.30;16.50;;;;;;;21.71;62.51;100105.30;131061;1256;107611;-75
2023/05/24 09:23:36;;;;;;;17.00;15.00;;;;;;;21.96;62.37;100105.52;131013;1254;107631;-75
2023/05/24 09:26:42;;;;;;;18.40;15.30;;;;;;;22.24;61.58;100114.69;131020;1261;107599;-76
2023/05/24 09:29:48;;;;;;;18.00;16.10;;;;;;;22.25;60.64;100120.46;130993;1254;107121;-76
2023/05/24 09:32:59;;;;;;;17.70;15.50;;;;;;;21.91;60.08;100123.73;131022;1251;108315;-77
2023/05/24 09:36:06;;;;;;;17.10;15.40;;;;;;;21.79;61.35;100127.98;131050;1256;106676;-77
2023/05/24 09:39:11;;;;;;;16.10;14.30;;;;;;;21.77;61.45;100131.04;130963;1256;107743;-77
2023/05/24 09:42:21;;;;;;;17.50;15.60;;;;;;;21.86;61.28;100135.45;130883;1254;107364;-77
2023/05/24 09:45:27;;;;;;;16.10;14.50;;;;;;;21.51;60.43;100135.20;131098;1256;106855;-77
2023/05/24 09:48:33;;;;;;;19.30;17.50;;;;;;;21.34;60.97;100130.30;130945;1256;107230;-77
2023/05/24 09:51:39;;;;;;;19.90;17.30;;;;;;;21.22;61.25;100135.25;131228;1255;107228;-77
2023/05/24 09:54:46;;;;;;;19.80;17.70;;;;;;;21.27;61.63;100132.96;131213;1256;108633;-77
2023/05/24 09:58:04;;;;;;;18.20;15.50;;;;;;;21.40;61.32;100133.83;131164;1257;107265;-77
2023/05/24 10:01:12;;;;;;;19.70;17.70;;;;;;;21.40;61.33;100135.61;131138;1257;107529;-78
2023/05/24 10:04:18;;;;;;;18.10;16.00;;;;;;;21.49;61.02;100139.70;131144;1255;107534;-77
2023/05/24 10:07:24;;;;;;;18.40;15.40;;;;;;;21.46;60.91;100144.38;130937;1257;107392;-76
2023/05/24 10:10:31;;;;;;;18.90;17.10;;;;;;;21.31;60.57;100152.30;130999;1264;107525;-76
2023/05/24 10:13:37;;;;;;;20.60;18.50;;;;;;;21.13;60.47;100151.36;131003;1251;106714;-77
2023/05/24 10:16:43;;;;;;;16.80;14.80;;;;;;;21.11;61.49;100152.69;130983;1256;107146;-76
2023/05/24 10:19:50;;;;;;;18.40;15.30;;;;;;;21.24;60.69;100151.91;131023;1256;107366;-78
2023/05/24 10:23:01;;;;;;;16.70;14.70;;;;;;;21.32;61.34;100151.20;131077;1252;107534;-75
2023/05/24 10:26:10;;;;;;;17.80;16.00;;;;;;;21.41;60.48;100152.27;131122;1256;107448;-77
2023/05/24 10:29:24;;;;;;;18.50;15.50;;;;;;;21.65;60.34;100151.61;131028;1256;107372;-82
2023/05/24 10:32:34;;;;;;;17.60;15.80;;;;;;;21.76;59.81;100152.90;131029;1254;107542;-79
2023/05/24 10:35:41;;;;;;;19.50;17.40;;;;;;;21.76;59.55;100157.61;131095;1255;106477;-79
2023/05/24 10:38:50;;;;;;;18.10;16.40;;;;;;;21.71;59.62;100154.72;131121;1253;107359;-78
2023/05/24 10:42:01;;;;;;;17.90;16.10;;;;;;;21.71;59.45;100151.63;131107;1256;107504;-77
2023/05/24 10:45:30;;;;;;;;;;;;;;;21.71;58.91;100149.78;130955;1256;106040;-77
2023/05/24 10:48:37;;;;;;;15.70;14.10;;;;;;;21.74;58.95;100156.98;131099;1256;108426;-77
2023/05/24 10:51:43;;;;;;;15.80;14.10;;;;;;;21.87;59.80;100154.50;131140;1253;107344;-77
2023/05/24 10:55:06;;;;;;;17.50;14.50;;;;;;;22.10;59.04;100154.85;130992;1255;107567;-77
2023/05/24 10:58:13;;;;;;;16.50;14.80;;;;;;;22.26;58.76;100156.27;131188;1253;108904;-77
2023/05/24 11:01:26;;;;;;;19.60;14.10;;;;;;;22.17;57.56;100153.83;131017;1255;107512;-78
2023/05/24 11:04:41;;;;;;;17.90;16.20;;;;;;;22.13;58.32;100159.48;131111;1256;107717;-77
2023/05/24 11:07:48;;;;;;;15.80;14.40;;;;;;;22.04;57.41;100160.07;131058;1256;107398;-77
2023/05/24 11:11:04;;;;;;;15.00;13.50;;;;;;;22.01;57.67;100163.35;130922;1256;107502;-79
2023/05/24 11:14:09;;;;;;;16.00;14.40;;;;;;;21.97;57.16;100167.61;130939;1256;108508;-78
2023/05/24 11:17:15;;;;;;;15.10;13.60;;;;;;;21.92;57.68;100170.83;130978;1256;108018;-79
2023/05/24 11:20:22;;;;;;;15.80;14.40;;;;;;;22.00;58.44;100165.58;130984;1256;107530;-80
2023/05/24 11:23:28;;;;;;;14.90;13.30;;;;;;;22.09;58.10;100173.09;130991;1251;106676;-81
2023/05/24 11:26:34;;;;;;;13.80;12.40;;;;;;;22.21;58.55;100176.33;131194;1256;107408;-79
2023/05/24 11:29:43;;;;;;;13.00;11.70;;;;;;;22.25;57.84;100181.94;131044;1256;108526;-74
2023/05/24 11:32:50;;;;;;;12.40;11.20;;;;;;;22.18;57.83;100187.34;131213;1256;107584;-77
2023/05/24 11:35:56;;;;;;;14.40;12.70;;;;;;;22.18;58.03;100187.13;131033;1253;107237;-79
2023/05/24 11:39:07;;;;;;;13.50;12.00;;;;;;;22.35;58.47;100184.37;131124;1255;106908;-78
2023/05/24 11:42:12;;;;;;;16.20;14.50;;;;;;;22.58;58.22;100179.80;131250;1255;107281;-77
2023/05/24 11:45:19;;;;;;;12.80;11.50;;;;;;;22.64;58.05;100183.36;130977;1256;107562;-76
2023/05/24 11:48:26;;;;;;;12.50;11.20;;;;;;;22.71;57.50;100183.02;130980;1253;107525;-75
2023/05/24 11:51:33;;;;;;;14.50;13.20;;;;;;;22.77;57.71;100181.65;131041;1257;108662;-76
2023/05/24 11:54:39;;;;;;;18.50;14.10;;;;;;;22.82;57.51;100182.39;131185;1256;108540;-76
2023/05/24 11:57:55;;;;;;;14.00;12.60;;;;;;;22.67;56.50;100182.30;130979;1256;107353;-76
2023/05/24 12:01:02;;;;;;;13.30;12.00;;;;;;;22.52;57.12;100184.33;131054;1256;109369;-76
2023/05/24 12:04:09;;;;;;;15.50;13.90;;;;;;;22.45;57.22;100187.14;130969;1255;107564;-77
2023/05/24 12:07:14;;;;;;;14.30;12.90;;;;;;;22.25;57.25;100192.27;131028;1256;108547;-77
2023/05/24 12:10:20;;;;;;;14.00;12.50;;;;;;;22.37;57.51;100195.09;131060;1265;107502;-77
2023/05/24 12:13:27;;;;;;;13.10;11.60;;;;;;;22.49;57.09;100192.63;131160;1251;108050;-76
2023/05/24 12:16:33;;;;;;;14.10;12.60;;;;;;;22.61;56.92;100189.27;131094;1255;107460;-76
2023/05/24 12:19:39;;;;;;;13.20;11.80;;;;;;;22.75;57.22;100182.27;131046;1256;108476;-76
2023/05/24 12:22:51;;;;;;;15.70;11.30;;;;;;;22.97;57.36;100183.90;130970;1254;108670;-77
2023/05/24 12:26:01;;;;;;;15.50;12.20;;;;;;;23.26;57.21;100184.60;131125;1254;108537;-77
2023/05/24 12:29:06;;;;;;;20.80;13.90;;;;;;;23.34;56.52;100183.86;131108;1254;108847;-76
2023/05/24 12:32:12;;;;;;;11.90;10.70;;;;;;;23.45;57.10;100185.31;131163;1254;109050;-76
2023/05/24 12:35:20;;;;;;;13.70;12.50;;;;;;;23.51;55.45;100190.43;131314;1256;108187;-77
2023/05/24 12:38:26;;;;;;;11.90;10.80;;;;;;;23.18;55.73;100194.63;131204;1256;107628;-76
2023/05/24 12:41:32;;;;;;;11.30;10.30;;;;;;;23.00;56.53;100198.16;130959;1256;106567;-77
2023/05/24 12:44:39;;;;;;;17.70;11.10;;;;;;;22.94;56.48;100193.23;131106;1257;108861;-76
2023/05/24 12:47:44;;;;;;;11.70;10.40;;;;;;;22.93;56.57;100199.73;130925;1256;108610;-76
2023/05/24 12:50:50;;;;;;;10.70;9.70;;;;;;;22.96;56.42;100200.11;130956;1257;107227;-76
2023/05/24 12:53:56;;;;;;;15.40;11.10;;;;;;;23.00;56.53;100203.05;131075;1256;105871;-76
2023/05/24 12:57:02;;;;;;;10.70;9.60;;;;;;;22.89;56.45;100205.71;131158;1255;107215;-77
2023/05/24 13:00:10;;;;;;;14.40;11.40;;;;;;;22.84;56.59;100205.72;130966;1256;108776;-76
2023/05/24 13:03:16;;;;;;;13.70;10.80;;;;;;;22.53;56.23;100207.13;131001;1256;107003;-76
2023/05/24 13:06:22;;;;;;;11.80;10.00;;;;;;;22.18;56.68;100216.37;130998;1256;107330;-78
2023/05/24 13:09:27;;;;;;;10.70;9.60;;;;;;;22.10;57.27;100212.34;131040;1264;108463;-77
2023/05/24 13:12:33;;;;;;;11.20;10.10;;;;;;;22.09;57.04;100216.11;131046;1254;108537;-76
2023/05/24 13:15:40;;;;;;;12.10;10.70;;;;;;;22.07;56.96;100221.61;130948;1253;108423;-76
2023/05/24 13:18:46;;;;;;;11.40;10.10;;;;;;;22.10;56.87;100217.93;131049;1255;106482;-76
2023/05/24 13:21:51;;;;;;;14.20;12.50;;;;;;;22.04;57.14;100224.78;131004;1253;107515;-76
2023/05/24 13:24:57;;;;;;;13.80;12.40;;;;;;;21.68;57.37;100222.77;131094;1256;108136;-76
2023/05/24 13:28:03;;;;;;;11.10;10.10;;;;;;;21.43;57.66;100218.32;131150;1256;107987;-76
2023/05/24 13:31:09;;;;;;;13.20;12.00;;;;;;;21.46;58.42;100225.94;131143;1251;107953;-76
2023/05/24 13:34:14;;;;;;;14.40;12.40;;;;;;;21.35;58.14;100217.72;131039;1253;108219;-75
2023/05/24 13:37:20;;;;;;;14.10;12.50;;;;;;;21.34;57.95;100219.69;131080;1251;107335;-76
2023/05/24 13:40:25;;;;;;;13.80;12.40;;;;;;;21.34;58.01;100218.40;131195;1256;107366;-75
2023/05/24 13:43:31;;;;;;;12.20;11.00;;;;;;;21.42;57.96;100218.41;131183;1251;107458;-76
2023/05/24 13:46:37;;;;;;;12.70;11.10;;;;;;;21.46;57.91;100216.55;131759;1251;108716;-77
2023/05/24 13:49:43;;;;;;;12.80;10.80;;;;;;;21.50;58.06;100220.13;131847;1256;108641;-76
2023/05/24 13:52:48;;;;;;;13.10;11.80;;;;;;;21.54;57.81;100216.91;130902;1256;106715;-76
2023/05/24 13:55:54;;;;;;;15.10;10.50;;;;;;;21.57;57.86;100218.19;131035;1257;107151;-77